Terminal Aerodrome Forecast
Issued by NWS

Home | Current Version | Previous Version | Text Only | Print | Product List | Glossary On
Versions: 1 2 3 4 5 6 7 8 9 10 11 12 13 14 15 16 17 18 19 20 21 22 23 24 25 26 27
825
FTUS42 KCAE 011137
TAFDNL
TAF
KDNL 011137Z 0112/0212 15006KT P6SM -SHRA BKN008 OVC025
      TEMPO 0112/0114 SCT008 OVC015
     FM011400 18008KT P6SM BKN025
     FM011500 18009KT P6SM SCT025 BKN040
     FM011800 20010KT P6SM VCSH SCT050 BKN200
     FM020000 21006KT P6SM SCT025 OVC100=

USA.gov is the U.S. government's official web portal to all federal, state and local government web resources and services.